sensor_id;sensor_type;location;lat;lon;timestamp;pressure;altitude;pressure_sealevel;temperature;humidity
49216;BME280;45943;53.148;8.204;2023-04-27T00:00:27;102046.13;;;10.33;97.80
49216;BME280;45943;53.148;8.204;2023-04-27T00:02:53;102050.25;;;10.39;98.30
49216;BME280;45943;53.148;8.204;2023-04-27T00:05:19;102049.13;;;10.43;95.73
49216;BME280;45943;53.148;8.204;2023-04-27T00:07:45;102052.28;;;10.49;94.09
49216;BME280;45943;53.148;8.204;2023-04-27T00:10:11;102052.00;;;10.54;93.15
49216;BME280;45943;53.148;8.204;2023-04-27T00:12:37;102045.94;;;10.50;93.49
49216;BME280;45943;53.148;8.204;2023-04-27T00:15:04;102047.38;;;10.42;94.32
49216;BME280;45943;53.148;8.204;2023-04-27T00:17:30;102047.97;;;10.32;96.20
49216;BME280;45943;53.148;8.204;2023-04-27T00:19:56;102046.41;;;10.28;98.02
49216;BME280;45943;53.148;8.204;2023-04-27T00:22:23;102054.34;;;10.30;98.49
49216;BME280;45943;53.148;8.204;2023-04-27T00:24:49;102057.03;;;10.30;98.17
49216;BME280;45943;53.148;8.204;2023-04-27T00:27:15;102060.88;;;10.40;98.10
49216;BME280;45943;53.148;8.204;2023-04-27T00:29:41;102056.22;;;10.44;96.08
49216;BME280;45943;53.148;8.204;2023-04-27T00:32:10;102059.56;;;10.47;95.17
49216;BME280;45943;53.148;8.204;2023-04-27T00:34:36;102056.22;;;10.44;94.76
49216;BME280;45943;53.148;8.204;2023-04-27T00:37:03;102064.16;;;10.45;95.15
49216;BME280;45943;53.148;8.204;2023-04-27T00:39:30;102069.53;;;10.45;94.02
49216;BME280;45943;53.148;8.204;2023-04-27T00:41:58;102065.88;;;10.46;95.10
49216;BME280;45943;53.148;8.204;2023-04-27T00:44:25;102071.91;;;10.50;95.86
49216;BME280;45943;53.148;8.204;2023-04-27T00:46:52;102068.88;;;10.56;92.32
49216;BME280;45943;53.148;8.204;2023-04-27T00:49:19;102072.78;;;10.50;92.25
49216;BME280;45943;53.148;8.204;2023-04-27T00:51:48;102082.84;;;10.47;94.17
49216;BME280;45943;53.148;8.204;2023-04-27T00:54:14;102069.72;;;10.42;94.58
49216;BME280;45943;53.148;8.204;2023-04-27T00:56:44;102072.97;;;10.33;95.63
49216;BME280;45943;53.148;8.204;2023-04-27T00:59:13;102077.38;;;10.34;95.25
49216;BME280;45943;53.148;8.204;2023-04-27T01:01:39;102082.72;;;10.34;94.65
49216;BME280;45943;53.148;8.204;2023-04-27T01:04:05;102081.00;;;10.33;94.65
49216;BME280;45943;53.148;8.204;2023-04-27T01:06:31;102077.47;;;10.32;95.15
49216;BME280;45943;53.148;8.204;2023-04-27T01:08:57;102083.59;;;10.34;93.83
49216;BME280;45943;53.148;8.204;2023-04-27T01:11:23;102085.41;;;10.34;95.27
49216;BME280;45943;53.148;8.204;2023-04-27T01:13:50;102091.72;;;10.33;94.65
49216;BME280;45943;53.148;8.204;2023-04-27T01:16:16;102083.84;;;10.30;95.22
49216;BME280;45943;53.148;8.204;2023-04-27T01:18:43;102096.78;;;10.23;96.13
49216;BME280;45943;53.148;8.204;2023-04-27T01:21:10;102099.69;;;10.19;97.32
49216;BME280;45943;53.148;8.204;2023-04-27T01:23:36;102093.44;;;10.18;96.92
49216;BME280;45943;53.148;8.204;2023-04-27T01:26:02;102089.31;;;10.13;98.23
49216;BME280;45943;53.148;8.204;2023-04-27T01:28:28;102090.72;;;10.04;100.00
49216;BME280;45943;53.148;8.204;2023-04-27T01:30:54;102093.03;;;10.10;99.88
49216;BME280;45943;53.148;8.204;2023-04-27T01:33:20;102089.16;;;10.16;98.98
49216;BME280;45943;53.148;8.204;2023-04-27T01:35:47;102094.41;;;10.17;97.35
49216;BME280;45943;53.148;8.204;2023-04-27T01:38:13;102091.41;;;10.07;97.71
49216;BME280;45943;53.148;8.204;2023-04-27T01:40:39;102100.50;;;10.05;99.63
49216;BME280;45943;53.148;8.204;2023-04-27T01:43:04;102093.00;;;9.96;99.45
49216;BME280;45943;53.148;8.204;2023-04-27T01:45:30;102090.06;;;9.85;100.00
49216;BME280;45943;53.148;8.204;2023-04-27T01:47:56;102105.19;;;9.86;100.00
49216;BME280;45943;53.148;8.204;2023-04-27T01:50:22;102104.34;;;9.85;100.00
49216;BME280;45943;53.148;8.204;2023-04-27T01:52:48;102099.22;;;9.81;100.00
49216;BME280;45943;53.148;8.204;2023-04-27T01:55:14;102099.31;;;9.79;100.00
49216;BME280;45943;53.148;8.204;2023-04-27T01:57:40;102096.81;;;9.76;100.00
49216;BME280;45943;53.148;8.204;2023-04-27T02:00:06;102103.47;;;9.69;100.00
49216;BME280;45943;53.148;8.204;2023-04-27T02:02:33;102096.91;;;9.59;100.00
49216;BME280;45943;53.148;8.204;2023-04-27T02:04:59;102102.25;;;9.59;100.00
49216;BME280;45943;53.148;8.204;2023-04-27T02:07:25;102099.31;;;9.63;100.00
49216;BME280;45943;53.148;8.204;2023-04-27T02:09:51;102106.31;;;9.66;100.00
49216;BME280;45943;53.148;8.204;2023-04-27T02:12:17;102093.69;;;9.68;100.00
49216;BME280;45943;53.148;8.204;2023-04-27T02:14:43;102100.25;;;9.62;100.00
49216;BME280;45943;53.148;8.204;2023-04-27T02:17:09;102106.66;;;9.60;100.00
49216;BME280;45943;53.148;8.204;2023-04-27T02:19:35;102116.41;;;9.61;100.00
49216;BME280;45943;53.148;8.204;2023-04-27T02:22:02;102115.38;;;9.63;100.00
49216;BME280;45943;53.148;8.204;2023-04-27T02:24:28;102113.50;;;9.65;100.00
49216;BME280;45943;53.148;8.204;2023-04-27T02:26:54;102104.94;;;9.59;100.00
49216;BME280;45943;53.148;8.204;2023-04-27T02:29:20;102107.88;;;9.54;100.00
49216;BME280;45943;53.148;8.204;2023-04-27T02:31:46;102109.00;;;9.50;100.00
49216;BME280;45943;53.148;8.204;2023-04-27T02:34:12;102107.69;;;9.41;100.00
49216;BME280;45943;53.148;8.204;2023-04-27T02:36:38;102101.81;;;9.35;100.00
49216;BME280;45943;53.148;8.204;2023-04-27T02:39:04;102112.53;;;9.35;100.00
49216;BME280;45943;53.148;8.204;2023-04-27T02:41:31;102103.19;;;9.42;100.00
49216;BME280;45943;53.148;8.204;2023-04-27T02:43:57;102107.69;;;9.41;100.00
49216;BME280;45943;53.148;8.204;2023-04-27T02:46:23;102115.72;;;9.41;100.00
49216;BME280;45943;53.148;8.204;2023-04-27T02:48:49;102110.22;;;9.44;100.00
49216;BME280;45943;53.148;8.204;2023-04-27T02:51:15;102113.31;;;9.53;100.00
49216;BME280;45943;53.148;8.204;2023-04-27T02:53:41;102107.44;;;9.46;100.00
49216;BME280;45943;53.148;8.204;2023-04-27T02:56:07;102107.59;;;9.43;100.00
49216;BME280;45943;53.148;8.204;2023-04-27T02:58:33;102109.34;;;9.44;100.00
49216;BME280;45943;53.148;8.204;2023-04-27T03:00:59;102108.41;;;9.45;100.00
49216;BME280;45943;53.148;8.204;2023-04-27T03:03:25;102106.69;;;9.44;100.00
49216;BME280;45943;53.148;8.204;2023-04-27T03:05:51;102119.53;;;9.37;100.00
49216;BME280;45943;53.148;8.204;2023-04-27T03:08:17;102115.13;;;9.36;100.00
49216;BME280;45943;53.148;8.204;2023-04-27T03:10:43;102118.91;;;9.32;100.00
49216;BME280;45943;53.148;8.204;2023-04-27T03:13:09;102123.47;;;9.30;100.00
49216;BME280;45943;53.148;8.204;2023-04-27T03:15:35;102118.75;;;9.35;100.00
49216;BME280;45943;53.148;8.204;2023-04-27T03:18:01;102118.66;;;9.37;100.00
49216;BME280;45943;53.148;8.204;2023-04-27T03:20:27;102119.16;;;9.43;100.00
49216;BME280;45943;53.148;8.204;2023-04-27T03:22:53;102124.53;;;9.43;100.00
49216;BME280;45943;53.148;8.204;2023-04-27T03:25:19;102131.78;;;9.41;100.00
49216;BME280;45943;53.148;8.204;2023-04-27T03:27:46;102120.66;;;9.49;100.00
49216;BME280;45943;53.148;8.204;2023-04-27T03:30:12;102117.97;;;9.49;100.00
49216;BME280;45943;53.148;8.204;2023-04-27T03:32:38;102118.06;;;9.47;100.00
49216;BME280;45943;53.148;8.204;2023-04-27T03:35:04;102116.56;;;9.42;100.00
49216;BME280;45943;53.148;8.204;2023-04-27T03:37:30;102122.81;;;9.42;100.00
49216;BME280;45943;53.148;8.204;2023-04-27T03:39:57;102117.53;;;9.41;100.00
49216;BME280;45943;53.148;8.204;2023-04-27T03:42:23;102113.81;;;9.43;100.00
49216;BME280;45943;53.148;8.204;2023-04-27T03:44:49;102114.75;;;9.42;100.00
49216;BME280;45943;53.148;8.204;2023-04-27T03:47:15;102111.13;;;9.43;100.00
49216;BME280;45943;53.148;8.204;2023-04-27T03:49:41;102106.03;;;9.39;100.00
49216;BME280;45943;53.148;8.204;2023-04-27T03:52:07;102108.81;;;9.37;100.00
49216;BME280;45943;53.148;8.204;2023-04-27T03:54:33;102114.94;;;9.39;100.00
49216;BME280;45943;53.148;8.204;2023-04-27T03:56:59;102110.34;;;9.41;100.00
49216;BME280;45943;53.148;8.204;2023-04-27T03:59:30;102117.53;;;9.41;100.00
49216;BME280;45943;53.148;8.204;2023-04-27T04:01:56;102115.03;;;9.38;100.00
49216;BME280;45943;53.148;8.204;2023-04-27T04:04:22;102115.13;;;9.36;100.00
49216;BME280;45943;53.148;8.204;2023-04-27T04:06:48;102116.31;;;9.31;100.00
49216;BME280;45943;53.148;8.204;2023-04-27T04:09:14;102114.50;;;9.31;100.00
49216;BME280;45943;53.148;8.204;2023-04-27T04:11:40;102115.44;;;9.30;100.00
49216;BME280;45943;53.148;8.204;2023-04-27T04:14:06;102119.63;;;9.36;100.00
49216;BME280;45943;53.148;8.204;2023-04-27T04:16:32;102122.53;;;9.31;100.00
49216;BME280;45943;53.148;8.204;2023-04-27T04:18:58;102109.91;;;9.33;100.00
49216;BME280;45943;53.148;8.204;2023-04-27T04:21:24;102112.44;;;9.36;100.00
49216;BME280;45943;53.148;8.204;2023-04-27T04:23:50;102124.34;;;9.31;100.00
49216;BME280;45943;53.148;8.204;2023-04-27T04:26:16;102122.94;;;9.24;100.00
49216;BME280;45943;53.148;8.204;2023-04-27T04:28:42;102122.03;;;9.25;100.00
49216;BME280;45943;53.148;8.204;2023-04-27T04:31:08;102116.91;;;9.20;100.00
49216;BME280;45943;53.148;8.204;2023-04-27T04:33:35;102121.72;;;9.13;100.00
49216;BME280;45943;53.148;8.204;2023-04-27T04:36:04;102126.19;;;9.13;100.00
49216;BME280;45943;53.148;8.204;2023-04-27T04:38:30;102123.63;;;9.11;100.00
49216;BME280;45943;53.148;8.204;2023-04-27T04:40:57;102125.25;;;9.14;100.00
49216;BME280;45943;53.148;8.204;2023-04-27T04:43:23;102131.31;;;9.17;100.00
49216;BME280;45943;53.148;8.204;2023-04-27T04:45:49;102126.06;;;9.16;100.00
49216;BME280;45943;53.148;8.204;2023-04-27T04:48:15;102122.56;;;9.14;100.00
49216;BME280;45943;53.148;8.204;2023-04-27T04:50:42;102124.47;;;9.12;100.00
49216;BME280;45943;53.148;8.204;2023-04-27T04:53:08;102126.47;;;9.24;100.00
49216;BME280;45943;53.148;8.204;2023-04-27T04:55:34;102124.34;;;9.31;100.00
49216;BME280;45943;53.148;8.204;2023-04-27T04:58:00;102126.44;;;9.41;100.00
49216;BME280;45943;53.148;8.204;2023-04-27T05:00:26;102126.00;;;9.49;100.00
49216;BME280;45943;53.148;8.204;2023-04-27T05:02:52;102126.63;;;9.54;100.00
49216;BME280;45943;53.148;8.204;2023-04-27T05:05:18;102122.91;;;9.57;100.00
49216;BME280;45943;53.148;8.204;2023-04-27T05:07:44;102133.44;;;9.60;100.00
49216;BME280;45943;53.148;8.204;2023-04-27T05:10:10;102133.25;;;9.63;100.00
49216;BME280;45943;53.148;8.204;2023-04-27T05:12:36;102133.25;;;9.63;100.00
49216;BME280;45943;53.148;8.204;2023-04-27T05:15:03;102131.63;;;9.60;100.00
49216;BME280;45943;53.148;8.204;2023-04-27T05:17:29;102135.25;;;9.59;100.00
49216;BME280;45943;53.148;8.204;2023-04-27T05:19:57;102136.22;;;9.58;100.00
49216;BME280;45943;53.148;8.204;2023-04-27T05:22:23;102134.13;;;9.63;100.00
49216;BME280;45943;53.148;8.204;2023-04-27T05:24:49;102133.13;;;9.66;100.00
49216;BME280;45943;53.148;8.204;2023-04-27T05:27:16;102144.19;;;9.75;100.00
49216;BME280;45943;53.148;8.204;2023-04-27T05:29:42;102142.63;;;9.87;100.00
49216;BME280;45943;53.148;8.204;2023-04-27T05:32:08;102148.22;;;9.98;100.00
49216;BME280;45943;53.148;8.204;2023-04-27T05:34:35;102144.06;;;10.09;100.00
49216;BME280;45943;53.148;8.204;2023-04-27T05:37:01;102150.97;;;10.13;100.00
49216;BME280;45943;53.148;8.204;2023-04-27T05:39:27;102144.09;;;10.24;100.00
49216;BME280;45943;53.148;8.204;2023-04-27T05:41:53;102146.03;;;10.37;100.00
49216;BME280;45943;53.148;8.204;2023-04-27T05:44:19;102150.09;;;10.44;100.00
49216;BME280;45943;53.148;8.204;2023-04-27T05:46:46;102152.16;;;10.54;100.00
49216;BME280;45943;53.148;8.204;2023-04-27T05:49:12;102148.63;;;10.68;100.00
49216;BME280;45943;53.148;8.204;2023-04-27T05:51:37;102156.78;;;10.81;100.00
49216;BME280;45943;53.148;8.204;2023-04-27T05:54:03;102155.56;;;10.86;100.00
49216;BME280;45943;53.148;8.204;2023-04-27T05:56:30;102156.94;;;10.94;100.00
49216;BME280;45943;53.148;8.204;2023-04-27T05:58:56;102156.94;;;10.94;100.00
49216;BME280;45943;53.148;8.204;2023-04-27T06:01:22;102161.66;;;11.04;100.00
49216;BME280;45943;53.148;8.204;2023-04-27T06:03:48;102165.50;;;11.14;100.00
49216;BME280;45943;53.148;8.204;2023-04-27T06:06:14;102166.53;;;11.26;100.00
49216;BME280;45943;53.148;8.204;2023-04-27T06:08:40;102169.41;;;11.37;100.00
49216;BME280;45943;53.148;8.204;2023-04-27T06:11:07;102170.00;;;11.42;100.00
49216;BME280;45943;53.148;8.204;2023-04-27T06:13:33;102173.94;;;11.37;100.00
49216;BME280;45943;53.148;8.204;2023-04-27T06:15:59;102170.88;;;11.43;100.00
49216;BME280;45943;53.148;8.204;2023-04-27T06:18:25;102178.53;;;11.49;100.00
49216;BME280;45943;53.148;8.204;2023-04-27T06:20:51;102171.84;;;11.42;100.00
49216;BME280;45943;53.148;8.204;2023-04-27T06:23:17;102179.13;;;11.54;100.00
49216;BME280;45943;53.148;8.204;2023-04-27T06:25:43;102178.03;;;11.57;99.11
49216;BME280;45943;53.148;8.204;2023-04-27T06:28:09;102177.56;;;11.50;99.22
49216;BME280;45943;53.148;8.204;2023-04-27T06:30:35;102180.34;;;11.63;98.06
49216;BME280;45943;53.148;8.204;2023-04-27T06:33:01;102182.94;;;11.64;96.61
49216;BME280;45943;53.148;8.204;2023-04-27T06:35:27;102187.84;;;11.72;98.96
49216;BME280;45943;53.148;8.204;2023-04-27T06:37:53;102176.31;;;11.84;96.41
49216;BME280;45943;53.148;8.204;2023-04-27T06:40:23;102178.34;;;11.81;96.58
49216;BME280;45943;53.148;8.204;2023-04-27T06:42:50;102182.94;;;11.93;93.45
49216;BME280;45943;53.148;8.204;2023-04-27T06:45:17;102185.03;;;12.02;92.67
49216;BME280;45943;53.148;8.204;2023-04-27T06:47:43;102175.56;;;12.09;89.76
49216;BME280;45943;53.148;8.204;2023-04-27T06:50:09;102174.03;;;12.19;89.32
49216;BME280;45943;53.148;8.204;2023-04-27T06:52:35;102177.06;;;12.27;89.69
49216;BME280;45943;53.148;8.204;2023-04-27T06:55:01;102177.84;;;12.29;86.30
49216;BME280;45943;53.148;8.204;2023-04-27T06:57:27;102175.59;;;12.36;85.33
49216;BME280;45943;53.148;8.204;2023-04-27T06:59:53;102173.25;;;12.44;85.14
49216;BME280;45943;53.148;8.204;2023-04-27T07:02:19;102163.81;;;12.51;83.79
49216;BME280;45943;53.148;8.204;2023-04-27T07:04:45;102167.13;;;12.55;81.74
49216;BME280;45943;53.148;8.204;2023-04-27T07:07:11;102168.34;;;12.63;82.32
49216;BME280;45943;53.148;8.204;2023-04-27T07:09:37;102172.47;;;12.69;78.86
49216;BME280;45943;53.148;8.204;2023-04-27T07:12:03;102168.69;;;12.72;74.21
49216;BME280;45943;53.148;8.204;2023-04-27T07:14:30;102168.69;;;12.72;72.05
49216;BME280;45943;53.148;8.204;2023-04-27T07:16:56;102169.44;;;12.74;71.01
49216;BME280;45943;53.148;8.204;2023-04-27T07:19:22;102174.53;;;12.78;69.19
49216;BME280;45943;53.148;8.204;2023-04-27T07:21:48;102173.63;;;12.78;66.50
49216;BME280;45943;53.148;8.204;2023-04-27T07:24:14;102165.91;;;12.86;67.43
49216;BME280;45943;53.148;8.204;2023-04-27T07:26:40;102173.22;;;12.97;66.81
49216;BME280;45943;53.148;8.204;2023-04-27T07:29:07;102174.75;;;13.01;64.78
49216;BME280;45943;53.148;8.204;2023-04-27T07:31:34;102174.31;;;12.94;61.95
49216;BME280;45943;53.148;8.204;2023-04-27T07:34:00;102176.38;;;13.03;62.24
49216;BME280;45943;53.148;8.204;2023-04-27T07:36:26;102173.16;;;13.11;62.14
49216;BME280;45943;53.148;8.204;2023-04-27T07:38:53;102166.69;;;13.13;61.74
49216;BME280;45943;53.148;8.204;2023-04-27T07:41:19;102170.69;;;13.08;60.87
49216;BME280;45943;53.148;8.204;2023-04-27T07:43:45;102172.81;;;13.03;60.93
49216;BME280;45943;53.148;8.204;2023-04-27T07:46:12;102176.81;;;13.10;61.06
49216;BME280;45943;53.148;8.204;2023-04-27T07:48:38;102173.78;;;13.02;60.95
49216;BME280;45943;53.148;8.204;2023-04-27T07:51:05;102171.19;;;13.13;62.05
49216;BME280;45943;53.148;8.204;2023-04-27T07:53:33;102171.22;;;13.26;61.41
49216;BME280;45943;53.148;8.204;2023-04-27T07:56:00;102169.94;;;13.31;60.27
49216;BME280;45943;53.148;8.204;2023-04-27T07:58:26;102158.81;;;13.36;59.67
49216;BME280;45943;53.148;8.204;2023-04-27T08:00:52;102159.56;;;13.51;59.91
49216;BME280;45943;53.148;8.204;2023-04-27T08:03:18;102164.72;;;13.54;57.84
49216;BME280;45943;53.148;8.204;2023-04-27T08:05:44;102152.19;;;13.65;57.46
49216;BME280;45943;53.148;8.204;2023-04-27T08:08:10;102143.13;;;13.79;56.91
49216;BME280;45943;53.148;8.204;2023-04-27T08:10:36;102144.16;;;13.89;56.90
49216;BME280;45943;53.148;8.204;2023-04-27T08:13:02;102138.66;;;13.91;56.12
49216;BME280;45943;53.148;8.204;2023-04-27T08:15:28;102142.75;;;13.84;55.20
49216;BME280;45943;53.148;8.204;2023-04-27T08:17:54;102141.72;;;13.73;54.08
49216;BME280;45943;53.148;8.204;2023-04-27T08:20:20;102147.59;;;13.67;52.05
49216;BME280;45943;53.148;8.204;2023-04-27T08:22:46;102145.59;;;13.82;52.96
49216;BME280;45943;53.148;8.204;2023-04-27T08:25:15;102137.84;;;14.01;52.86
49216;BME280;45943;53.148;8.204;2023-04-27T08:27:41;102149.22;;;14.18;52.31
49216;BME280;45943;53.148;8.204;2023-04-27T08:30:08;102138.81;;;14.24;51.56
49216;BME280;45943;53.148;8.204;2023-04-27T08:32:34;102147.00;;;14.35;51.17
49216;BME280;45943;53.148;8.204;2023-04-27T08:35:00;102143.59;;;14.45;50.27
49216;BME280;45943;53.148;8.204;2023-04-27T08:37:26;102135.94;;;14.62;48.87
49216;BME280;45943;53.148;8.204;2023-04-27T08:39:52;102144.47;;;14.80;49.24
49216;BME280;45943;53.148;8.204;2023-04-27T08:42:18;102140.66;;;14.83;48.75
49216;BME280;45943;53.148;8.204;2023-04-27T08:44:44;102143.59;;;14.80;47.18
49216;BME280;45943;53.148;8.204;2023-04-27T08:47:10;102145.44;;;14.79;46.84
49216;BME280;45943;53.148;8.204;2023-04-27T08:49:37;102149.03;;;14.91;47.21
49216;BME280;45943;53.148;8.204;2023-04-27T08:52:03;102150.16;;;15.00;48.84
49216;BME280;45943;53.148;8.204;2023-04-27T08:54:36;102172.38;;;15.03;49.10
49216;BME280;45943;53.148;8.204;2023-04-27T08:57:07;102160.72;;;15.14;48.63
49216;BME280;45943;53.148;8.204;2023-04-27T08:59:37;102160.84;;;15.01;48.04
49216;BME280;45943;53.148;8.204;2023-04-27T09:02:04;102165.47;;;14.77;46.44
49216;BME280;45943;53.148;8.204;2023-04-27T09:04:39;102163.81;;;14.63;47.67
49216;BME280;45943;53.148;8.204;2023-04-27T09:07:12;102165.53;;;14.64;47.65
49216;BME280;45943;53.148;8.204;2023-04-27T09:09:40;102166.28;;;14.66;46.71
49216;BME280;45943;53.148;8.204;2023-04-27T09:12:12;102170.22;;;14.73;47.87
49216;BME280;45943;53.148;8.204;2023-04-27T09:14:42;102165.47;;;14.77;47.33
49216;BME280;45943;53.148;8.204;2023-04-27T09:17:09;102164.69;;;14.75;48.25
49216;BME280;45943;53.148;8.204;2023-04-27T09:19:35;102175.38;;;14.65;47.43
49216;BME280;45943;53.148;8.204;2023-04-27T09:22:02;102171.75;;;14.53;47.44
49216;BME280;45943;53.148;8.204;2023-04-27T09:24:35;102172.75;;;14.40;47.98
49216;BME280;45943;53.148;8.204;2023-04-27T09:27:02;102167.56;;;14.49;49.32
49216;BME280;45943;53.148;8.204;2023-04-27T09:29:36;102173.34;;;14.32;49.89
49216;BME280;45943;53.148;8.204;2023-04-27T09:32:15;102178.03;;;14.41;50.31
49216;BME280;45943;53.148;8.204;2023-04-27T09:34:42;102173.47;;;14.30;48.79
49216;BME280;45943;53.148;8.204;2023-04-27T09:37:08;102176.50;;;14.26;49.32
49216;BME280;45943;53.148;8.204;2023-04-27T09:39:35;102166.50;;;14.39;49.61
49216;BME280;45943;53.148;8.204;2023-04-27T09:42:01;102172.09;;;14.49;49.31
49216;BME280;45943;53.148;8.204;2023-04-27T09:44:29;102163.53;;;14.55;49.25
49216;BME280;45943;53.148;8.204;2023-04-27T09:46:57;102163.03;;;14.50;48.11
49216;BME280;45943;53.148;8.204;2023-04-27T09:49:23;102176.09;;;14.43;47.19
49216;BME280;45943;53.148;8.204;2023-04-27T09:51:50;102172.34;;;14.46;47.50
49216;BME280;45943;53.148;8.204;2023-04-27T09:54:19;102172.34;;;14.92;47.88
49216;BME280;45943;53.148;8.204;2023-04-27T09:56:54;102157.44;;;15.33;46.24
49216;BME280;45943;53.148;8.204;2023-04-27T10:00:19;102156.94;;;15.50;46.38
49216;BME280;45943;53.148;8.204;2023-04-27T10:02:56;102159.78;;;15.93;44.57
49216;BME280;45943;53.148;8.204;2023-04-27T10:08:24;102155.50;;;16.55;42.76
49216;BME280;45943;53.148;8.204;2023-04-27T10:10:52;102146.31;;;16.67;41.63
49216;BME280;45943;53.148;8.204;2023-04-27T10:13:22;102150.16;;;16.64;41.66
49216;BME280;45943;53.148;8.204;2023-04-27T10:15:50;102151.38;;;16.60;41.84
49216;BME280;45943;53.148;8.204;2023-04-27T10:18:24;102145.25;;;16.58;41.06
49216;BME280;45943;53.148;8.204;2023-04-27T10:20:52;102146.56;;;16.43;40.89
49216;BME280;45943;53.148;8.204;2023-04-27T10:23:23;102138.81;;;16.39;40.10
49216;BME280;45943;53.148;8.204;2023-04-27T10:25:51;102138.81;;;16.71;40.37
49216;BME280;45943;53.148;8.204;2023-04-27T10:28:18;102133.28;;;16.72;39.36
49216;BME280;45943;53.148;8.204;2023-04-27T10:30:47;102148.56;;;16.73;38.61
49216;BME280;45943;53.148;8.204;2023-04-27T10:33:17;102143.00;;;16.75;37.82
49216;BME280;45943;53.148;8.204;2023-04-27T10:35:56;102138.63;;;17.04;38.53
49216;BME280;45943;53.148;8.204;2023-04-27T10:38:26;102143.72;;;17.59;39.15
49216;BME280;45943;53.148;8.204;2023-04-27T10:40:55;102140.53;;;17.74;39.81
49216;BME280;45943;53.148;8.204;2023-04-27T10:43:23;102147.69;;;17.55;38.21
49216;BME280;45943;53.148;8.204;2023-04-27T10:45:51;102135.94;;;17.44;38.35
49216;BME280;45943;53.148;8.204;2023-04-27T10:48:18;102139.34;;;17.37;39.32
49216;BME280;45943;53.148;8.204;2023-04-27T10:50:44;102138.44;;;17.27;38.91
49216;BME280;45943;53.148;8.204;2023-04-27T10:53:11;102136.31;;;17.61;39.71
49216;BME280;45943;53.148;8.204;2023-04-27T10:55:39;102131.28;;;17.96;38.85
49216;BME280;45943;53.148;8.204;2023-04-27T10:58:05;102128.88;;;18.03;37.65
49216;BME280;45943;53.148;8.204;2023-04-27T11:00:32;102123.41;;;17.84;38.07
49216;BME280;45943;53.148;8.204;2023-04-27T11:03:13;102127.19;;;17.31;37.38
49216;BME280;45943;53.148;8.204;2023-04-27T11:05:41;102123.81;;;16.87;38.44
49216;BME280;45943;53.148;8.204;2023-04-27T11:08:10;102124.69;;;17.18;38.26
49216;BME280;45943;53.148;8.204;2023-04-27T11:10:44;102122.03;;;16.77;37.90
49216;BME280;45943;53.148;8.204;2023-04-27T11:13:13;102116.75;;;17.27;39.18
49216;BME280;45943;53.148;8.204;2023-04-27T11:15:56;102114.28;;;17.94;38.90
49216;BME280;45943;53.148;8.204;2023-04-27T11:18:24;102104.69;;;18.58;38.36
49216;BME280;45943;53.148;8.204;2023-04-27T11:21:04;102107.38;;;18.97;37.09
49216;BME280;45943;53.148;8.204;2023-04-27T11:23:32;102105.44;;;18.41;35.51
49216;BME280;45943;53.148;8.204;2023-04-27T11:26:08;102101.88;;;18.11;35.87
49216;BME280;45943;53.148;8.204;2023-04-27T11:28:39;102101.69;;;17.43;37.31
49216;BME280;45943;53.148;8.204;2023-04-27T11:31:06;102107.31;;;17.21;37.86
49216;BME280;45943;53.148;8.204;2023-04-27T11:33:32;102109.19;;;17.30;38.35
49216;BME280;45943;53.148;8.204;2023-04-27T11:35:58;102114.53;;;17.41;37.92
49216;BME280;45943;53.148;8.204;2023-04-27T11:38:25;102105.31;;;17.23;37.92
49216;BME280;45943;53.148;8.204;2023-04-27T11:41:03;102096.09;;;17.35;38.37
49216;BME280;45943;53.148;8.204;2023-04-27T11:43:30;102108.13;;;17.12;37.89
49216;BME280;45943;53.148;8.204;2023-04-27T11:45:57;102114.50;;;17.01;37.66
49216;BME280;45943;53.148;8.204;2023-04-27T11:48:23;102112.69;;;16.90;38.37
49216;BME280;45943;53.148;8.204;2023-04-27T11:50:51;102111.97;;;16.88;38.41
49216;BME280;45943;53.148;8.204;2023-04-27T11:56:03;102110.78;;;17.02;39.27
49216;BME280;45943;53.148;8.204;2023-04-27T11:58:34;102117.84;;;17.14;39.16
49216;BME280;45943;53.148;8.204;2023-04-27T12:01:01;102110.84;;;17.12;38.77
49216;BME280;45943;53.148;8.204;2023-04-27T12:03:28;102114.28;;;17.14;38.85
49216;BME280;45943;53.148;8.204;2023-04-27T12:05:55;102119.50;;;17.06;39.26
49216;BME280;45943;53.148;8.204;2023-04-27T12:08:22;102120.50;;;17.05;38.11
49216;BME280;45943;53.148;8.204;2023-04-27T12:10:48;102116.25;;;17.12;38.63
49216;BME280;45943;53.148;8.204;2023-04-27T12:13:15;102112.03;;;17.29;38.40
49216;BME280;45943;53.148;8.204;2023-04-27T12:15:41;102118.16;;;17.52;38.16
49216;BME280;45943;53.148;8.204;2023-04-27T12:18:08;102111.59;;;17.64;38.60
49216;BME280;45943;53.148;8.204;2023-04-27T12:20:34;102115.16;;;17.55;37.93
49216;BME280;45943;53.148;8.204;2023-04-27T12:23:00;102111.53;;;17.44;37.93
49216;BME280;45943;53.148;8.204;2023-04-27T12:25:27;102109.78;;;17.34;38.34
49216;BME280;45943;53.148;8.204;2023-04-27T12:27:53;102109.69;;;17.14;37.66
49216;BME280;45943;53.148;8.204;2023-04-27T12:30:19;102110.13;;;17.19;38.34
49216;BME280;45943;53.148;8.204;2023-04-27T12:32:46;102111.91;;;17.30;38.76
49216;BME280;45943;53.148;8.204;2023-04-27T12:35:12;102119.75;;;17.24;38.61
49216;BME280;45943;53.148;8.204;2023-04-27T12:37:39;102109.13;;;17.41;38.74
49216;BME280;45943;53.148;8.204;2023-04-27T12:40:05;102113.81;;;17.70;39.02
49216;BME280;45943;53.148;8.204;2023-04-27T12:42:33;102113.03;;;17.68;37.86
49216;BME280;45943;53.148;8.204;2023-04-27T12:45:00;102106.44;;;17.51;38.15
49216;BME280;45943;53.148;8.204;2023-04-27T12:47:26;102103.16;;;17.57;39.01
49216;BME280;45943;53.148;8.204;2023-04-27T12:49:52;102106.88;;;17.66;39.25
49216;BME280;45943;53.148;8.204;2023-04-27T12:52:18;102113.31;;;17.65;38.63
49216;BME280;45943;53.148;8.204;2023-04-27T12:54:44;102112.28;;;17.56;38.33